sensor_id;sensor_type;location;lat;lon;timestamp;temperature;humidity
2387;DHT22;49473;50.772;8.768;2022-11-12T00:00:20;7.70;99.90
2387;DHT22;49473;50.772;8.768;2022-11-12T00:02:47;7.60;99.90
2387;DHT22;49473;50.772;8.768;2022-11-12T00:05:14;7.50;99.90
2387;DHT22;49473;50.772;8.768;2022-11-12T00:07:41;7.60;99.90
2387;DHT22;49473;50.772;8.768;2022-11-12T00:10:09;7.60;99.90
2387;DHT22;49473;50.772;8.768;2022-11-12T00:12:37;7.60;99.90
2387;DHT22;49473;50.772;8.768;2022-11-12T00:15:04;7.60;99.90
2387;DHT22;49473;50.772;8.768;2022-11-12T00:17:31;7.60;99.90
2387;DHT22;49473;50.772;8.768;2022-11-12T00:19:58;7.60;99.90
2387;DHT22;49473;50.772;8.768;2022-11-12T00:22:25;7.60;99.90
2387;DHT22;49473;50.772;8.768;2022-11-12T00:24:52;7.60;99.90
2387;DHT22;49473;50.772;8.768;2022-11-12T00:27:18;7.60;99.90
2387;DHT22;49473;50.772;8.768;2022-11-12T00:29:47;7.70;99.90
2387;DHT22;49473;50.772;8.768;2022-11-12T00:32:14;7.70;99.90
2387;DHT22;49473;50.772;8.768;2022-11-12T00:34:40;7.60;99.90
2387;DHT22;49473;50.772;8.768;2022-11-12T00:37:07;7.60;99.90
2387;DHT22;49473;50.772;8.768;2022-11-12T00:39:34;7.60;99.90
2387;DHT22;49473;50.772;8.768;2022-11-12T00:42:01;7.70;99.90
2387;DHT22;49473;50.772;8.768;2022-11-12T00:44:28;7.70;99.90
2387;DHT22;49473;50.772;8.768;2022-11-12T00:46:56;7.60;99.90
2387;DHT22;49473;50.772;8.768;2022-11-12T00:49:23;7.60;99.90
2387;DHT22;49473;50.772;8.768;2022-11-12T00:51:50;7.60;99.90
2387;DHT22;49473;50.772;8.768;2022-11-12T00:54:17;7.50;99.90
2387;DHT22;49473;50.772;8.768;2022-11-12T00:56:45;7.50;99.90
2387;DHT22;49473;50.772;8.768;2022-11-12T00:59:11;7.50;99.90
2387;DHT22;49473;50.772;8.768;2022-11-12T01:01:39;7.50;99.90
2387;DHT22;49473;50.772;8.768;2022-11-12T01:04:08;7.50;99.90
2387;DHT22;49473;50.772;8.768;2022-11-12T01:06:38;7.40;99.90
2387;DHT22;49473;50.772;8.768;2022-11-12T01:09:05;7.50;99.90
2387;DHT22;49473;50.772;8.768;2022-11-12T01:11:32;7.50;99.90
2387;DHT22;49473;50.772;8.768;2022-11-12T01:14:00;7.50;99.90
2387;DHT22;49473;50.772;8.768;2022-11-12T01:16:29;7.50;99.90
2387;DHT22;49473;50.772;8.768;2022-11-12T01:18:59;7.50;99.90
2387;DHT22;49473;50.772;8.768;2022-11-12T01:21:29;7.50;99.90
2387;DHT22;49473;50.772;8.768;2022-11-12T01:23:57;7.40;99.90
2387;DHT22;49473;50.772;8.768;2022-11-12T01:26:26;7.40;99.90
2387;DHT22;49473;50.772;8.768;2022-11-12T01:28:53;7.30;99.90
2387;DHT22;49473;50.772;8.768;2022-11-12T01:31:24;7.30;99.90
2387;DHT22;49473;50.772;8.768;2022-11-12T01:33:53;7.30;99.90
2387;DHT22;49473;50.772;8.768;2022-11-12T01:36:21;7.30;99.90
2387;DHT22;49473;50.772;8.768;2022-11-12T01:38:50;7.40;99.90
2387;DHT22;49473;50.772;8.768;2022-11-12T01:41:19;7.40;99.90
2387;DHT22;49473;50.772;8.768;2022-11-12T01:43:46;7.50;99.90
2387;DHT22;49473;50.772;8.768;2022-11-12T01:46:17;7.50;99.90
2387;DHT22;49473;50.772;8.768;2022-11-12T01:48:48;7.50;99.90
2387;DHT22;49473;50.772;8.768;2022-11-12T01:51:19;7.60;99.90
2387;DHT22;49473;50.772;8.768;2022-11-12T01:53:50;7.50;99.90
2387;DHT22;49473;50.772;8.768;2022-11-12T01:56:19;7.50;99.90
2387;DHT22;49473;50.772;8.768;2022-11-12T01:58:49;7.50;99.90
2387;DHT22;49473;50.772;8.768;2022-11-12T02:01:18;7.50;99.90
2387;DHT22;49473;50.772;8.768;2022-11-12T02:03:44;7.40;99.90
2387;DHT22;49473;50.772;8.768;2022-11-12T02:06:13;7.40;99.90
2387;DHT22;49473;50.772;8.768;2022-11-12T02:08:40;7.40;99.90
2387;DHT22;49473;50.772;8.768;2022-11-12T02:11:15;7.30;99.90
2387;DHT22;49473;50.772;8.768;2022-11-12T02:13:43;7.20;99.90
2387;DHT22;49473;50.772;8.768;2022-11-12T02:16:22;7.20;99.90
2387;DHT22;49473;50.772;8.768;2022-11-12T02:18:49;7.30;99.90
2387;DHT22;49473;50.772;8.768;2022-11-12T02:21:18;7.30;99.90
2387;DHT22;49473;50.772;8.768;2022-11-12T02:23:46;7.40;99.90
2387;DHT22;49473;50.772;8.768;2022-11-12T02:26:12;7.40;99.90
2387;DHT22;49473;50.772;8.768;2022-11-12T02:28:39;7.50;99.90
2387;DHT22;49473;50.772;8.768;2022-11-12T02:31:06;7.30;99.90
2387;DHT22;49473;50.772;8.768;2022-11-12T02:33:33;7.20;99.90
2387;DHT22;49473;50.772;8.768;2022-11-12T02:36:00;7.00;99.90
2387;DHT22;49473;50.772;8.768;2022-11-12T02:38:28;7.10;99.90
2387;DHT22;49473;50.772;8.768;2022-11-12T02:40:55;7.00;99.90
2387;DHT22;49473;50.772;8.768;2022-11-12T02:43:22;7.10;99.90
2387;DHT22;49473;50.772;8.768;2022-11-12T02:45:49;7.20;99.90
2387;DHT22;49473;50.772;8.768;2022-11-12T02:48:16;7.30;99.90
2387;DHT22;49473;50.772;8.768;2022-11-12T02:50:42;7.30;99.90
2387;DHT22;49473;50.772;8.768;2022-11-12T02:53:09;7.30;99.90
2387;DHT22;49473;50.772;8.768;2022-11-12T02:55:37;7.30;99.90
2387;DHT22;49473;50.772;8.768;2022-11-12T02:58:04;7.30;99.90
2387;DHT22;49473;50.772;8.768;2022-11-12T03:00:31;7.40;99.90
2387;DHT22;49473;50.772;8.768;2022-11-12T03:02:58;7.40;99.90
2387;DHT22;49473;50.772;8.768;2022-11-12T03:05:25;7.30;99.90
2387;DHT22;49473;50.772;8.768;2022-11-12T03:07:56;7.40;99.90
2387;DHT22;49473;50.772;8.768;2022-11-12T03:10:24;7.30;99.90
2387;DHT22;49473;50.772;8.768;2022-11-12T03:12:52;7.20;99.90
2387;DHT22;49473;50.772;8.768;2022-11-12T03:15:19;7.10;99.90
2387;DHT22;49473;50.772;8.768;2022-11-12T03:17:46;7.00;99.90
2387;DHT22;49473;50.772;8.768;2022-11-12T03:20:13;6.90;99.90
2387;DHT22;49473;50.772;8.768;2022-11-12T03:22:40;6.90;99.90
2387;DHT22;49473;50.772;8.768;2022-11-12T03:25:08;6.80;99.90
2387;DHT22;49473;50.772;8.768;2022-11-12T03:27:35;6.90;99.90
2387;DHT22;49473;50.772;8.768;2022-11-12T03:30:04;6.80;99.90
2387;DHT22;49473;50.772;8.768;2022-11-12T03:32:31;6.90;99.90
2387;DHT22;49473;50.772;8.768;2022-11-12T03:34:58;6.80;99.90
2387;DHT22;49473;50.772;8.768;2022-11-12T03:37:25;6.80;99.90
2387;DHT22;49473;50.772;8.768;2022-11-12T03:39:51;6.80;99.90
2387;DHT22;49473;50.772;8.768;2022-11-12T03:42:18;6.90;99.90
2387;DHT22;49473;50.772;8.768;2022-11-12T03:44:45;6.80;99.90
2387;DHT22;49473;50.772;8.768;2022-11-12T03:47:13;6.80;99.90
2387;DHT22;49473;50.772;8.768;2022-11-12T03:49:40;6.70;99.90
2387;DHT22;49473;50.772;8.768;2022-11-12T03:52:06;6.70;99.90
2387;DHT22;49473;50.772;8.768;2022-11-12T03:54:33;6.70;99.90
2387;DHT22;49473;50.772;8.768;2022-11-12T03:57:00;6.60;99.90
2387;DHT22;49473;50.772;8.768;2022-11-12T03:59:27;6.50;99.90
2387;DHT22;49473;50.772;8.768;2022-11-12T04:01:53;6.50;99.90
2387;DHT22;49473;50.772;8.768;2022-11-12T04:04:22;6.60;99.90
2387;DHT22;49473;50.772;8.768;2022-11-12T04:07:08;6.50;99.90
2387;DHT22;49473;50.772;8.768;2022-11-12T04:09:53;6.50;99.90
2387;DHT22;49473;50.772;8.768;2022-11-12T04:12:19;6.60;99.90
2387;DHT22;49473;50.772;8.768;2022-11-12T04:15:05;6.60;99.90
2387;DHT22;49473;50.772;8.768;2022-11-12T04:17:31;6.70;99.90
2387;DHT22;49473;50.772;8.768;2022-11-12T04:20:17;6.80;99.90
2387;DHT22;49473;50.772;8.768;2022-11-12T04:23:01;6.80;99.90
2387;DHT22;49473;50.772;8.768;2022-11-12T04:25:28;6.80;99.90
2387;DHT22;49473;50.772;8.768;2022-11-12T04:28:13;6.80;99.90
2387;DHT22;49473;50.772;8.768;2022-11-12T04:30:39;6.80;99.90
2387;DHT22;49473;50.772;8.768;2022-11-12T04:33:05;6.80;99.90
2387;DHT22;49473;50.772;8.768;2022-11-12T04:35:33;6.80;99.90
2387;DHT22;49473;50.772;8.768;2022-11-12T04:38:00;6.80;99.90
2387;DHT22;49473;50.772;8.768;2022-11-12T04:40:27;6.90;99.90
2387;DHT22;49473;50.772;8.768;2022-11-12T04:43:13;6.90;99.90
2387;DHT22;49473;50.772;8.768;2022-11-12T04:45:59;6.90;99.90
2387;DHT22;49473;50.772;8.768;2022-11-12T04:48:27;6.90;99.90
2387;DHT22;49473;50.772;8.768;2022-11-12T04:50:57;6.80;99.90
2387;DHT22;49473;50.772;8.768;2022-11-12T04:53:25;6.80;99.90
2387;DHT22;49473;50.772;8.768;2022-11-12T04:55:54;6.80;99.90
2387;DHT22;49473;50.772;8.768;2022-11-12T04:58:22;6.80;99.90
2387;DHT22;49473;50.772;8.768;2022-11-12T05:00:49;6.80;99.90
2387;DHT22;49473;50.772;8.768;2022-11-12T05:03:16;6.80;99.90
2387;DHT22;49473;50.772;8.768;2022-11-12T05:05:43;6.80;99.90
2387;DHT22;49473;50.772;8.768;2022-11-12T05:08:11;6.80;99.90
2387;DHT22;49473;50.772;8.768;2022-11-12T05:10:38;6.80;99.90
2387;DHT22;49473;50.772;8.768;2022-11-12T05:13:05;6.80;99.90
2387;DHT22;49473;50.772;8.768;2022-11-12T05:15:32;6.80;99.90
2387;DHT22;49473;50.772;8.768;2022-11-12T05:17:58;6.80;99.90
2387;DHT22;49473;50.772;8.768;2022-11-12T05:20:25;6.80;99.90
2387;DHT22;49473;50.772;8.768;2022-11-12T05:22:52;6.80;99.90
2387;DHT22;49473;50.772;8.768;2022-11-12T05:25:20;6.80;99.90
2387;DHT22;49473;50.772;8.768;2022-11-12T05:27:47;6.70;99.90
2387;DHT22;49473;50.772;8.768;2022-11-12T05:30:14;6.70;99.90
2387;DHT22;49473;50.772;8.768;2022-11-12T05:32:40;6.70;99.90
2387;DHT22;49473;50.772;8.768;2022-11-12T05:35:07;6.80;99.90
2387;DHT22;49473;50.772;8.768;2022-11-12T05:37:34;6.80;99.90
2387;DHT22;49473;50.772;8.768;2022-11-12T05:40:01;6.70;99.90
2387;DHT22;49473;50.772;8.768;2022-11-12T05:42:29;6.70;99.90
2387;DHT22;49473;50.772;8.768;2022-11-12T05:44:56;6.70;99.90
2387;DHT22;49473;50.772;8.768;2022-11-12T05:47:23;6.80;99.90
2387;DHT22;49473;50.772;8.768;2022-11-12T05:49:49;6.80;99.90
2387;DHT22;49473;50.772;8.768;2022-11-12T05:52:16;6.70;99.90
2387;DHT22;49473;50.772;8.768;2022-11-12T05:54:43;6.80;99.90
2387;DHT22;49473;50.772;8.768;2022-11-12T05:57:10;6.80;99.90
2387;DHT22;49473;50.772;8.768;2022-11-12T05:59:38;6.80;99.90
2387;DHT22;49473;50.772;8.768;2022-11-12T06:02:04;6.80;99.90
2387;DHT22;49473;50.772;8.768;2022-11-12T06:04:31;6.70;99.90
2387;DHT22;49473;50.772;8.768;2022-11-12T06:06:58;6.50;99.90
2387;DHT22;49473;50.772;8.768;2022-11-12T06:09:27;6.50;99.90
2387;DHT22;49473;50.772;8.768;2022-11-12T06:11:54;6.50;99.90
2387;DHT22;49473;50.772;8.768;2022-11-12T06:14:21;6.60;99.90
2387;DHT22;49473;50.772;8.768;2022-11-12T06:16:49;6.50;99.90
2387;DHT22;49473;50.772;8.768;2022-11-12T06:19:16;6.40;99.90
2387;DHT22;49473;50.772;8.768;2022-11-12T06:21:42;6.50;99.90
2387;DHT22;49473;50.772;8.768;2022-11-12T06:24:09;6.50;99.90
2387;DHT22;49473;50.772;8.768;2022-11-12T06:26:36;6.60;99.90
2387;DHT22;49473;50.772;8.768;2022-11-12T06:29:03;6.70;99.90
2387;DHT22;49473;50.772;8.768;2022-11-12T06:31:30;6.70;99.90
2387;DHT22;49473;50.772;8.768;2022-11-12T06:33:58;6.60;99.90
2387;DHT22;49473;50.772;8.768;2022-11-12T06:36:24;6.50;99.90
2387;DHT22;49473;50.772;8.768;2022-11-12T06:38:51;6.40;99.90
2387;DHT22;49473;50.772;8.768;2022-11-12T06:41:18;6.40;99.90
2387;DHT22;49473;50.772;8.768;2022-11-12T06:43:46;6.30;99.90
2387;DHT22;49473;50.772;8.768;2022-11-12T06:46:14;6.20;99.90
2387;DHT22;49473;50.772;8.768;2022-11-12T06:48:42;6.20;99.90
2387;DHT22;49473;50.772;8.768;2022-11-12T06:51:16;6.20;99.90
2387;DHT22;49473;50.772;8.768;2022-11-12T06:53:43;6.20;99.90
2387;DHT22;49473;50.772;8.768;2022-11-12T06:56:10;6.20;99.90
2387;DHT22;49473;50.772;8.768;2022-11-12T06:58:37;6.10;99.90
2387;DHT22;49473;50.772;8.768;2022-11-12T07:01:06;6.10;99.90
2387;DHT22;49473;50.772;8.768;2022-11-12T07:03:33;6.00;99.90
2387;DHT22;49473;50.772;8.768;2022-11-12T07:06:05;6.00;99.90
2387;DHT22;49473;50.772;8.768;2022-11-12T07:08:33;6.00;99.90
2387;DHT22;49473;50.772;8.768;2022-11-12T07:11:00;6.00;99.90
2387;DHT22;49473;50.772;8.768;2022-11-12T07:13:30;6.10;99.90
2387;DHT22;49473;50.772;8.768;2022-11-12T07:15:58;6.10;99.90
2387;DHT22;49473;50.772;8.768;2022-11-12T07:18:25;6.10;99.90
2387;DHT22;49473;50.772;8.768;2022-11-12T07:20:56;6.20;99.90
2387;DHT22;49473;50.772;8.768;2022-11-12T07:23:23;6.20;99.90
2387;DHT22;49473;50.772;8.768;2022-11-12T07:25:56;6.20;99.90
2387;DHT22;49473;50.772;8.768;2022-11-12T07:28:23;6.20;99.90
2387;DHT22;49473;50.772;8.768;2022-11-12T07:30:54;6.40;99.90
2387;DHT22;49473;50.772;8.768;2022-11-12T07:33:22;6.30;99.90
2387;DHT22;49473;50.772;8.768;2022-11-12T07:35:55;6.30;99.90
2387;DHT22;49473;50.772;8.768;2022-11-12T07:38:22;6.30;99.90
2387;DHT22;49473;50.772;8.768;2022-11-12T07:40:49;6.30;99.90
2387;DHT22;49473;50.772;8.768;2022-11-12T07:43:17;6.30;99.90
2387;DHT22;49473;50.772;8.768;2022-11-12T07:45:44;6.40;99.90
2387;DHT22;49473;50.772;8.768;2022-11-12T07:48:11;6.40;99.90
2387;DHT22;49473;50.772;8.768;2022-11-12T07:50:37;6.50;99.90
2387;DHT22;49473;50.772;8.768;2022-11-12T07:53:04;6.50;99.90
2387;DHT22;49473;50.772;8.768;2022-11-12T07:55:31;6.60;99.90
2387;DHT22;49473;50.772;8.768;2022-11-12T07:57:58;6.60;99.90
2387;DHT22;49473;50.772;8.768;2022-11-12T08:00:26;6.50;99.90
2387;DHT22;49473;50.772;8.768;2022-11-12T08:02:53;6.50;99.90
2387;DHT22;49473;50.772;8.768;2022-11-12T08:05:20;6.40;99.90
2387;DHT22;49473;50.772;8.768;2022-11-12T08:07:46;6.40;99.90
2387;DHT22;49473;50.772;8.768;2022-11-12T08:10:13;6.40;99.90
2387;DHT22;49473;50.772;8.768;2022-11-12T08:12:40;6.40;99.90
2387;DHT22;49473;50.772;8.768;2022-11-12T08:15:08;6.40;99.90
2387;DHT22;49473;50.772;8.768;2022-11-12T08:17:38;6.40;99.90
2387;DHT22;49473;50.772;8.768;2022-11-12T08:20:06;6.40;99.90
2387;DHT22;49473;50.772;8.768;2022-11-12T08:22:33;6.40;99.90
2387;DHT22;49473;50.772;8.768;2022-11-12T08:25:00;6.40;99.90
2387;DHT22;49473;50.772;8.768;2022-11-12T08:27:26;6.40;99.90
2387;DHT22;49473;50.772;8.768;2022-11-12T08:29:53;6.40;99.90
2387;DHT22;49473;50.772;8.768;2022-11-12T08:32:20;6.30;99.90
2387;DHT22;49473;50.772;8.768;2022-11-12T08:34:48;6.50;99.90
2387;DHT22;49473;50.772;8.768;2022-11-12T08:37:15;6.70;99.90
2387;DHT22;49473;50.772;8.768;2022-11-12T08:39:42;6.60;99.90
2387;DHT22;49473;50.772;8.768;2022-11-12T08:42:08;6.70;99.90
2387;DHT22;49473;50.772;8.768;2022-11-12T08:44:35;6.80;99.90
2387;DHT22;49473;50.772;8.768;2022-11-12T08:47:02;6.90;99.90
2387;DHT22;49473;50.772;8.768;2022-11-12T08:49:29;7.00;99.90
2387;DHT22;49473;50.772;8.768;2022-11-12T08:51:57;7.00;99.90
2387;DHT22;49473;50.772;8.768;2022-11-12T08:54:24;6.90;99.90
2387;DHT22;49473;50.772;8.768;2022-11-12T08:56:51;6.90;99.90
2387;DHT22;49473;50.772;8.768;2022-11-12T08:59:17;7.00;99.90
2387;DHT22;49473;50.772;8.768;2022-11-12T09:01:44;7.10;99.90
2387;DHT22;49473;50.772;8.768;2022-11-12T09:04:11;7.10;99.90
2387;DHT22;49473;50.772;8.768;2022-11-12T09:06:38;7.20;99.90
2387;DHT22;49473;50.772;8.768;2022-11-12T09:09:06;7.40;99.90
2387;DHT22;49473;50.772;8.768;2022-11-12T09:11:33;7.40;99.90
2387;DHT22;49473;50.772;8.768;2022-11-12T09:13:59;7.30;99.90
2387;DHT22;49473;50.772;8.768;2022-11-12T09:16:26;7.30;99.90
2387;DHT22;49473;50.772;8.768;2022-11-12T09:18:53;7.20;99.90
2387;DHT22;49473;50.772;8.768;2022-11-12T09:21:19;7.20;99.90
2387;DHT22;49473;50.772;8.768;2022-11-12T09:23:49;7.20;99.90
2387;DHT22;49473;50.772;8.768;2022-11-12T09:26:17;7.10;99.90
2387;DHT22;49473;50.772;8.768;2022-11-12T09:28:44;7.10;99.90
2387;DHT22;49473;50.772;8.768;2022-11-12T09:31:11;7.30;99.90
2387;DHT22;49473;50.772;8.768;2022-11-12T09:33:38;7.50;99.90
2387;DHT22;49473;50.772;8.768;2022-11-12T09:36:05;7.30;99.90
2387;DHT22;49473;50.772;8.768;2022-11-12T09:38:32;7.20;99.90
2387;DHT22;49473;50.772;8.768;2022-11-12T09:41:23;7.30;99.90
2387;DHT22;49473;50.772;8.768;2022-11-12T09:43:53;7.40;99.90
2387;DHT22;49473;50.772;8.768;2022-11-12T09:46:30;7.50;99.90
2387;DHT22;49473;50.772;8.768;2022-11-12T09:49:04;7.50;99.90
2387;DHT22;49473;50.772;8.768;2022-11-12T09:51:34;7.50;99.90
2387;DHT22;49473;50.772;8.768;2022-11-12T09:54:05;7.50;99.90
2387;DHT22;49473;50.772;8.768;2022-11-12T09:56:39;7.50;99.90
2387;DHT22;49473;50.772;8.768;2022-11-12T09:59:10;7.50;99.90
2387;DHT22;49473;50.772;8.768;2022-11-12T10:01:43;7.50;99.90
2387;DHT22;49473;50.772;8.768;2022-11-12T10:04:26;7.60;99.90
2387;DHT22;49473;50.772;8.768;2022-11-12T10:06:58;7.40;99.90
2387;DHT22;49473;50.772;8.768;2022-11-12T10:09:30;7.60;99.90
2387;DHT22;49473;50.772;8.768;2022-11-12T10:12:10;7.70;99.90
2387;DHT22;49473;50.772;8.768;2022-11-12T10:15:17;7.80;99.90
2387;DHT22;49473;50.772;8.768;2022-11-12T10:18:07;7.90;99.90
2387;DHT22;49473;50.772;8.768;2022-11-12T10:20:39;7.90;99.90
2387;DHT22;49473;50.772;8.768;2022-11-12T10:23:15;7.90;99.90
2387;DHT22;49473;50.772;8.768;2022-11-12T10:25:45;8.10;99.90
2387;DHT22;49473;50.772;8.768;2022-11-12T10:28:24;8.00;99.90
2387;DHT22;49473;50.772;8.768;2022-11-12T10:30:54;8.00;99.90
2387;DHT22;49473;50.772;8.768;2022-11-12T10:33:22;7.90;99.90
2387;DHT22;49473;50.772;8.768;2022-11-12T10:35:51;7.90;99.90
2387;DHT22;49473;50.772;8.768;2022-11-12T10:38:24;7.80;99.90
2387;DHT22;49473;50.772;8.768;2022-11-12T10:40:52;7.90;99.90
2387;DHT22;49473;50.772;8.768;2022-11-12T10:43:22;8.00;99.90
2387;DHT22;49473;50.772;8.768;2022-11-12T10:45:50;8.10;99.90
2387;DHT22;49473;50.772;8.768;2022-11-12T10:48:25;8.10;99.90
2387;DHT22;49473;50.772;8.768;2022-11-12T10:50:58;8.10;99.90
2387;DHT22;49473;50.772;8.768;2022-11-12T10:53:32;8.20;99.90
2387;DHT22;49473;50.772;8.768;2022-11-12T10:56:01;8.30;99.90
2387;DHT22;49473;50.772;8.768;2022-11-12T10:58:30;8.40;99.90
2387;DHT22;49473;50.772;8.768;2022-11-12T11:00:59;8.60;99.90
2387;DHT22;49473;50.772;8.768;2022-11-12T11:03:28;8.80;99.90
2387;DHT22;49473;50.772;8.768;2022-11-12T11:05:59;8.80;99.90
2387;DHT22;49473;50.772;8.768;2022-11-12T11:08:41;8.90;99.90
2387;DHT22;49473;50.772;8.768;2022-11-12T11:11:23;9.00;99.90
2387;DHT22;49473;50.772;8.768;2022-11-12T11:13:53;8.90;99.90
2387;DHT22;49473;50.772;8.768;2022-11-12T11:16:23;8.70;99.90
2387;DHT22;49473;50.772;8.768;2022-11-12T11:18:53;8.40;99.90
2387;DHT22;49473;50.772;8.768;2022-11-12T11:21:43;8.50;99.90
2387;DHT22;49473;50.772;8.768;2022-11-12T11:24:24;8.40;99.90
2387;DHT22;49473;50.772;8.768;2022-11-12T11:26:58;8.30;99.90
2387;DHT22;49473;50.772;8.768;2022-11-12T11:29:41;8.40;99.90
2387;DHT22;49473;50.772;8.768;2022-11-12T11:32:18;8.70;99.90
2387;DHT22;49473;50.772;8.768;2022-11-12T11:34:56;8.90;99.90
2387;DHT22;49473;50.772;8.768;2022-11-12T11:37:30;9.10;99.90
2387;DHT22;49473;50.772;8.768;2022-11-12T11:40:05;9.30;99.90
2387;DHT22;49473;50.772;8.768;2022-11-12T11:42:52;9.40;99.90
2387;DHT22;49473;50.772;8.768;2022-11-12T11:45:26;9.50;99.90
2387;DHT22;49473;50.772;8.768;2022-11-12T11:48:03;9.20;99.90
2387;DHT22;49473;50.772;8.768;2022-11-12T11:50:38;9.00;99.90
2387;DHT22;49473;50.772;8.768;2022-11-12T11:53:18;9.30;99.90
2387;DHT22;49473;50.772;8.768;2022-11-12T11:55:54;9.20;99.90
2387;DHT22;49473;50.772;8.768;2022-11-12T11:58:42;9.50;99.90
2387;DHT22;49473;50.772;8.768;2022-11-12T12:01:18;9.70;99.90
2387;DHT22;49473;50.772;8.768;2022-11-12T12:04:04;9.80;99.90
2387;DHT22;49473;50.772;8.768;2022-11-12T12:06:38;9.90;99.90
2387;DHT22;49473;50.772;8.768;2022-11-12T12:09:17;9.90;99.90
2387;DHT22;49473;50.772;8.768;2022-11-12T12:11:56;10.00;99.90
2387;DHT22;49473;50.772;8.768;2022-11-12T12:14:40;10.00;99.90
2387;DHT22;49473;50.772;8.768;2022-11-12T12:17:20;10.00;99.90
2387;DHT22;49473;50.772;8.768;2022-11-12T12:19:59;10.10;99.90
2387;DHT22;49473;50.772;8.768;2022-11-12T12:22:36;9.90;99.90
2387;DHT22;49473;50.772;8.768;2022-11-12T12:25:10;10.00;99.90
2387;DHT22;49473;50.772;8.768;2022-11-12T12:27:46;10.10;99.90
2387;DHT22;49473;50.772;8.768;2022-11-12T12:30:18;10.00;99.90
2387;DHT22;49473;50.772;8.768;2022-11-12T12:32:52;9.90;99.90
2387;DHT22;49473;50.772;8.768;2022-11-12T12:35:24;10.10;99.90
2387;DHT22;49473;50.772;8.768;2022-11-12T12:37:56;10.40;99.90
2387;DHT22;49473;50.772;8.768;2022-11-12T12:40:31;10.30;99.90
2387;DHT22;49473;50.772;8.768;2022-11-12T12:43:03;10.50;99.90
2387;DHT22;49473;50.772;8.768;2022-11-12T12:45:38;10.70;99.90
2387;DHT22;49473;50.772;8.768;2022-11-12T12:48:12;10.70;99.90
2387;DHT22;49473;50.772;8.768;2022-11-12T12:50:41;10.70;99.90
2387;DHT22;49473;50.772;8.768;2022-11-12T12:53:17;10.70;99.90
2387;DHT22;49473;50.772;8.768;2022-11-12T12:55:57;10.40;99.90
2387;DHT22;49473;50.772;8.768;2022-11-12T12:58:26;10.40;99.90
2387;DHT22;49473;50.772;8.768;2022-11-12T13:00:58;10.00;99.90
2387;DHT22;49473;50.772;8.768;2022-11-12T13:03:53;9.80;99.90
2387;DHT22;49473;50.772;8.768;2022-11-12T13:06:25;9.40;99.90
2387;DHT22;49473;50.772;8.768;2022-11-12T13:08:56;9.40;99.90
2387;DHT22;49473;50.772;8.768;2022-11-12T13:11:47;9.50;99.90
2387;DHT22;49473;50.772;8.768;2022-11-12T13:15:14;9.60;99.90
2387;DHT22;49473;50.772;8.768;2022-11-12T13:17:46;9.90;99.90
2387;DHT22;49473;50.772;8.768;2022-11-12T13:20:35;9.80;99.90
2387;DHT22;49473;50.772;8.768;2022-11-12T13:23:06;9.50;99.90
2387;DHT22;49473;50.772;8.768;2022-11-12T13:25:35;9.40;99.90
2387;DHT22;49473;50.772;8.768;2022-11-12T13:28:11;9.40;99.90
2387;DHT22;49473;50.772;8.768;2022-11-12T13:31:00;9.40;99.90
2387;DHT22;49473;50.772;8.768;2022-11-12T13:33:31;9.60;99.90
2387;DHT22;49473;50.772;8.768;2022-11-12T13:36:33;9.90;99.90
2387;DHT22;49473;50.772;8.768;2022-11-12T13:39:12;10.10;99.90
2387;DHT22;49473;50.772;8.768;2022-11-12T13:41:39;10.10;99.90
2387;DHT22;49473;50.772;8.768;2022-11-12T13:44:24;10.20;99.90
2387;DHT22;49473;50.772;8.768;2022-11-12T13:46:52;10.30;99.90
2387;DHT22;49473;50.772;8.768;2022-11-12T13:49:21;10.40;99.90
2387;DHT22;49473;50.772;8.768;2022-11-12T13:51:49;10.40;99.90
2387;DHT22;49473;50.772;8.768;2022-11-12T13:54:38;10.40;99.90
2387;DHT22;49473;50.772;8.768;2022-11-12T13:57:24;10.50;99.90
2387;DHT22;49473;50.772;8.768;2022-11-12T14:00:18;10.50;99.90
2387;DHT22;49473;50.772;8.768;2022-11-12T14:02:49;10.50;99.90
2387;DHT22;49473;50.772;8.768;2022-11-12T14:05:19;10.50;99.90
2387;DHT22;49473;50.772;8.768;2022-11-12T14:08:07;10.50;99.90
2387;DHT22;49473;50.772;8.768;2022-11-12T14:10:46;10.30;99.90
2387;DHT22;49473;50.772;8.768;2022-11-12T14:13:33;10.20;99.90
2387;DHT22;49473;50.772;8.768;2022-11-12T14:16:28;10.00;99.90
2387;DHT22;49473;50.772;8.768;2022-11-12T14:19:16;10.20;99.90
2387;DHT22;49473;50.772;8.768;2022-11-12T14:22:00;10.30;99.90
2387;DHT22;49473;50.772;8.768;2022-11-12T14:24:37;10.20;99.90
2387;DHT22;49473;50.772;8.768;2022-11-12T14:27:18;10.20;99.90
2387;DHT22;49473;50.772;8.768;2022-11-12T14:29:46;10.10;99.90
2387;DHT22;49473;50.772;8.768;2022-11-12T14:32:13;10.00;99.90
2387;DHT22;49473;50.772;8.768;2022-11-12T14:34:40;9.90;99.90
2387;DHT22;49473;50.772;8.768;2022-11-12T14:37:31;9.90;99.90
2387;DHT22;49473;50.772;8.768;2022-11-12T14:40:01;9.90;99.90
2387;DHT22;49473;50.772;8.768;2022-11-12T14:42:28;9.80;99.90
2387;DHT22;49473;50.772;8.768;2022-11-12T14:44:55;9.80;99.90
2387;DHT22;49473;50.772;8.768;2022-11-12T14:47:22;9.70;99.90
2387;DHT22;49473;50.772;8.768;2022-11-12T14:49:49;9.70;99.90
2387;DHT22;49473;50.772;8.768;2022-11-12T14:52:19;9.70;99.90
2387;DHT22;49473;50.772;8.768;2022-11-12T14:54:49;9.70;99.90
2387;DHT22;49473;50.772;8.768;2022-11-12T14:57:24;9.60;99.90
2387;DHT22;49473;50.772;8.768;2022-11-12T14:59:53;9.60;99.90
2387;DHT22;49473;50.772;8.768;2022-11-12T15:02:23;9.60;99.90
2387;DHT22;49473;50.772;8.768;2022-11-12T15:04:58;9.50;99.90
2387;DHT22;49473;50.772;8.768;2022-11-12T15:07:27;9.40;99.90
2387;DHT22;49473;50.772;8.768;2022-11-12T15:09:54;9.40;99.90
2387;DHT22;49473;50.772;8.768;2022-11-12T15:12:24;9.30;99.90
2387;DHT22;49473;50.772;8.768;2022-11-12T15:14:52;9.20;99.90
2387;DHT22;49473;50.772;8.768;2022-11-12T15:17:28;9.20;99.90
2387;DHT22;49473;50.772;8.768;2022-11-12T15:20:00;9.20;99.90
2387;DHT22;49473;50.772;8.768;2022-11-12T15:22:27;9.20;99.90
2387;DHT22;49473;50.772;8.768;2022-11-12T15:24:55;9.10;99.90
2387;DHT22;49473;50.772;8.768;2022-11-12T15:27:36;9.00;99.90
2387;DHT22;49473;50.772;8.768;2022-11-12T15:30:19;9.00;99.90
2387;DHT22;49473;50.772;8.768;2022-11-12T15:32:48;9.00;99.90
2387;DHT22;49473;50.772;8.768;2022-11-12T15:35:35;8.90;99.90
2387;DHT22;49473;50.772;8.768;2022-11-12T15:38:05;8.90;99.90
2387;DHT22;49473;50.772;8.768;2022-11-12T15:40:40;8.80;99.90
2387;DHT22;49473;50.772;8.768;2022-11-12T15:43:16;8.80;99.90
2387;DHT22;49473;50.772;8.768;2022-11-12T15:45:46;8.70;99.90
2387;DHT22;49473;50.772;8.768;2022-11-12T15:48:13;8.60;99.90
2387;DHT22;49473;50.772;8.768;2022-11-12T15:50:40;8.60;99.90
2387;DHT22;49473;50.772;8.768;2022-11-12T15:53:07;8.50;99.90
2387;DHT22;49473;50.772;8.768;2022-11-12T15:55:36;8.40;99.90
2387;DHT22;49473;50.772;8.768;2022-11-12T15:58:03;8.30;99.90
2387;DHT22;49473;50.772;8.768;2022-11-12T16:00:34;8.30;99.90
2387;DHT22;49473;50.772;8.768;2022-11-12T16:03:11;8.20;99.90
2387;DHT22;49473;50.772;8.768;2022-11-12T16:05:39;8.20;99.90
2387;DHT22;49473;50.772;8.768;2022-11-12T16:08:06;8.20;99.90
2387;DHT22;49473;50.772;8.768;2022-11-12T16:10:33;8.10;99.90
2387;DHT22;49473;50.772;8.768;2022-11-12T16:13:01;8.00;99.90
2387;DHT22;49473;50.772;8.768;2022-11-12T16:15:29;8.10;99.90
2387;DHT22;49473;50.772;8.768;2022-11-12T16:17:57;8.10;99.90
2387;DHT22;49473;50.772;8.768;2022-11-12T16:20:27;8.00;99.90
2387;DHT22;49473;50.772;8.768;2022-11-12T16:22:54;7.90;99.90